Coca, El Coca Francisco de Orellana Airport (SECO)

NameEl Coca Francisco de Orellana Airport
CityCoca
CountryEcuador
ICAOSECO
IATAOCC
Altitude254 m
CoordinatesGoogle Map
Live Air TrafficLiveATC.net
METARSECO 151200Z 14002KT 5000 -RA BCFG FEW005 SCT016 BKN100 22/22 Q1015 RMK A2997
2018-10-15 12:00:00 Wind: Southeast (140°) 1.03 m/s - Visibility: 5000 m - Weather: Light Rain / Low drifting Fog - Temperature: 22 °C - Dew point: 22 °C - Humidity: 100% - Pressure: 1015 hPa
Statistics

The table below shows the detailed information of all flights to/from Coca, El Coca Francisco de Orellana Airport (SECO).

Ident Aircraft Coming fromFrom Going toTo Owner nameOwnerDate
HC-CSB - A319 - Avianca Ecuador GLG1657 AIRBUS A-319 A319 Coca, Ecuador (SECO) SECO
165 km
, Ecuador (SEQM) SEQM Avianca Ecuador Avianca Ecuador Fri, 12 Oct 2018 15:30:35 +0000 12/10/2018 3:30 pm
HC-CTR - A320 - Avianca Ecuador GLG1657 AIRBUS A-320 A320 Coca, Ecuador (SECO) SECO
167 km
, Ecuador (SEQM) SEQM - - Thu, 11 Oct 2018 15:38:50 +0000 11/10/2018 3:38 pm
HC-CSB - A319 - Avianca Ecuador GLG1657 AIRBUS A-319 A319 Coca, Ecuador (SECO) SECO
163 km
, Ecuador (SEQM) SEQM Avianca Ecuador Avianca Ecuador Tue, 09 Oct 2018 14:18:57 +0000 9/10/2018 2:18 pm
HC-CSB - A319 - Avianca Ecuador GLG1657 AIRBUS A-319 A319 Coca, Ecuador (SECO) SECO
165 km
, Ecuador (SEQM) SEQM Avianca Ecuador Avianca Ecuador Mon, 08 Oct 2018 14:18:24 +0000 8/10/2018 2:18 pm